sensor_id;sensor_type;location;lat;lon;timestamp;temperature;humidity
21487;DHT22;10905;50.822;4.336;2023-07-24T00:00:14;19.40;99.90
21487;DHT22;10905;50.822;4.336;2023-07-24T00:02:40;19.40;99.90
21487;DHT22;10905;50.822;4.336;2023-07-24T00:05:05;19.40;99.90
21487;DHT22;10905;50.822;4.336;2023-07-24T00:07:31;19.40;99.90
21487;DHT22;10905;50.822;4.336;2023-07-24T00:09:57;19.40;99.90
21487;DHT22;10905;50.822;4.336;2023-07-24T00:12:22;19.30;99.90
21487;DHT22;10905;50.822;4.336;2023-07-24T00:14:48;19.30;99.90
21487;DHT22;10905;50.822;4.336;2023-07-24T00:17:14;19.40;99.90
21487;DHT22;10905;50.822;4.336;2023-07-24T00:19:39;19.40;99.90
21487;DHT22;10905;50.822;4.336;2023-07-24T00:22:05;19.30;99.90
21487;DHT22;10905;50.822;4.336;2023-07-24T00:24:31;19.30;99.90
21487;DHT22;10905;50.822;4.336;2023-07-24T00:26:57;19.30;99.90
21487;DHT22;10905;50.822;4.336;2023-07-24T00:29:23;19.40;99.90
21487;DHT22;10905;50.822;4.336;2023-07-24T00:31:49;19.50;99.90
21487;DHT22;10905;50.822;4.336;2023-07-24T00:34:14;19.50;99.90
21487;DHT22;10905;50.822;4.336;2023-07-24T00:36:40;19.40;99.90
21487;DHT22;10905;50.822;4.336;2023-07-24T00:39:06;19.40;99.90
21487;DHT22;10905;50.822;4.336;2023-07-24T00:41:31;19.40;99.90
21487;DHT22;10905;50.822;4.336;2023-07-24T00:43:57;19.30;99.90
21487;DHT22;10905;50.822;4.336;2023-07-24T00:46:23;19.40;99.90
21487;DHT22;10905;50.822;4.336;2023-07-24T00:48:50;19.40;99.90
21487;DHT22;10905;50.822;4.336;2023-07-24T00:51:16;19.40;99.90
21487;DHT22;10905;50.822;4.336;2023-07-24T00:53:42;19.40;99.90
21487;DHT22;10905;50.822;4.336;2023-07-24T00:56:08;19.40;99.90
21487;DHT22;10905;50.822;4.336;2023-07-24T00:58:37;19.40;99.90
21487;DHT22;10905;50.822;4.336;2023-07-24T01:01:03;19.40;99.90
21487;DHT22;10905;50.822;4.336;2023-07-24T01:03:34;19.40;99.90
21487;DHT22;10905;50.822;4.336;2023-07-24T01:06:03;19.40;99.90
21487;DHT22;10905;50.822;4.336;2023-07-24T01:08:29;19.40;99.90
21487;DHT22;10905;50.822;4.336;2023-07-24T01:13:37;19.40;99.90
21487;DHT22;10905;50.822;4.336;2023-07-24T01:16:18;19.40;99.90
21487;DHT22;10905;50.822;4.336;2023-07-24T01:18:45;19.30;99.90
21487;DHT22;10905;50.822;4.336;2023-07-24T01:21:12;19.20;99.90
21487;DHT22;10905;50.822;4.336;2023-07-24T01:24:23;19.20;99.90
21487;DHT22;10905;50.822;4.336;2023-07-24T01:26:50;19.20;99.90
21487;DHT22;10905;50.822;4.336;2023-07-24T01:29:15;19.30;99.90
21487;DHT22;10905;50.822;4.336;2023-07-24T01:31:41;19.20;99.90
21487;DHT22;10905;50.822;4.336;2023-07-24T01:34:07;19.20;99.90
21487;DHT22;10905;50.822;4.336;2023-07-24T01:36:32;19.30;99.90
21487;DHT22;10905;50.822;4.336;2023-07-24T01:38:59;19.20;99.90
21487;DHT22;10905;50.822;4.336;2023-07-24T01:41:26;19.10;99.90
21487;DHT22;10905;50.822;4.336;2023-07-24T01:43:51;19.10;99.90
21487;DHT22;10905;50.822;4.336;2023-07-24T01:46:17;19.00;99.90
21487;DHT22;10905;50.822;4.336;2023-07-24T01:48:43;19.00;99.90
21487;DHT22;10905;50.822;4.336;2023-07-24T01:51:08;19.00;99.90
21487;DHT22;10905;50.822;4.336;2023-07-24T01:53:34;19.00;99.90
21487;DHT22;10905;50.822;4.336;2023-07-24T01:55:59;19.00;99.90
21487;DHT22;10905;50.822;4.336;2023-07-24T01:58:25;19.00;99.90
21487;DHT22;10905;50.822;4.336;2023-07-24T02:00:51;19.00;99.90
21487;DHT22;10905;50.822;4.336;2023-07-24T02:03:16;19.00;99.90
21487;DHT22;10905;50.822;4.336;2023-07-24T02:05:42;18.90;99.90
21487;DHT22;10905;50.822;4.336;2023-07-24T02:08:07;18.90;99.90
21487;DHT22;10905;50.822;4.336;2023-07-24T02:10:36;19.00;99.90
21487;DHT22;10905;50.822;4.336;2023-07-24T02:13:02;19.00;99.90
21487;DHT22;10905;50.822;4.336;2023-07-24T02:15:28;19.00;99.90
21487;DHT22;10905;50.822;4.336;2023-07-24T02:17:54;18.90;99.90
21487;DHT22;10905;50.822;4.336;2023-07-24T02:20:19;18.90;99.90
21487;DHT22;10905;50.822;4.336;2023-07-24T02:22:45;18.90;99.90
21487;DHT22;10905;50.822;4.336;2023-07-24T02:25:10;18.90;99.90
21487;DHT22;10905;50.822;4.336;2023-07-24T02:27:36;18.90;99.90
21487;DHT22;10905;50.822;4.336;2023-07-24T02:30:02;19.00;99.90
21487;DHT22;10905;50.822;4.336;2023-07-24T02:32:28;19.00;99.90
21487;DHT22;10905;50.822;4.336;2023-07-24T02:34:53;18.90;99.90
21487;DHT22;10905;50.822;4.336;2023-07-24T02:37:19;18.90;99.90
21487;DHT22;10905;50.822;4.336;2023-07-24T02:39:45;18.90;99.90
21487;DHT22;10905;50.822;4.336;2023-07-24T02:42:11;18.90;99.90
21487;DHT22;10905;50.822;4.336;2023-07-24T02:44:37;18.90;99.90
21487;DHT22;10905;50.822;4.336;2023-07-24T02:47:02;18.90;99.90
21487;DHT22;10905;50.822;4.336;2023-07-24T02:49:29;18.90;99.90
21487;DHT22;10905;50.822;4.336;2023-07-24T02:51:54;18.90;99.90
21487;DHT22;10905;50.822;4.336;2023-07-24T02:54:20;18.90;99.90
21487;DHT22;10905;50.822;4.336;2023-07-24T02:56:46;18.90;99.90
21487;DHT22;10905;50.822;4.336;2023-07-24T02:59:11;18.90;99.90
21487;DHT22;10905;50.822;4.336;2023-07-24T03:01:37;18.80;99.90
21487;DHT22;10905;50.822;4.336;2023-07-24T03:04:03;18.70;99.90
21487;DHT22;10905;50.822;4.336;2023-07-24T03:06:30;18.60;99.90
21487;DHT22;10905;50.822;4.336;2023-07-24T03:08:56;18.60;99.90
21487;DHT22;10905;50.822;4.336;2023-07-24T03:11:21;18.50;99.90
21487;DHT22;10905;50.822;4.336;2023-07-24T03:13:47;18.40;99.90
21487;DHT22;10905;50.822;4.336;2023-07-24T03:16:13;18.40;99.90
21487;DHT22;10905;50.822;4.336;2023-07-24T03:18:38;18.20;99.90
21487;DHT22;10905;50.822;4.336;2023-07-24T03:21:04;18.10;99.90
21487;DHT22;10905;50.822;4.336;2023-07-24T03:23:29;18.10;99.90
21487;DHT22;10905;50.822;4.336;2023-07-24T03:25:55;18.10;99.90
21487;DHT22;10905;50.822;4.336;2023-07-24T03:28:20;18.00;99.90
21487;DHT22;10905;50.822;4.336;2023-07-24T03:30:46;18.00;99.90
21487;DHT22;10905;50.822;4.336;2023-07-24T03:33:12;18.00;99.90
21487;DHT22;10905;50.822;4.336;2023-07-24T03:35:38;17.90;99.90
21487;DHT22;10905;50.822;4.336;2023-07-24T03:38:05;17.80;99.90
21487;DHT22;10905;50.822;4.336;2023-07-24T03:40:30;17.90;99.90
21487;DHT22;10905;50.822;4.336;2023-07-24T03:42:56;17.90;99.90
21487;DHT22;10905;50.822;4.336;2023-07-24T03:45:22;17.90;99.90
21487;DHT22;10905;50.822;4.336;2023-07-24T03:47:47;17.90;99.90
21487;DHT22;10905;50.822;4.336;2023-07-24T03:50:13;17.80;99.90
21487;DHT22;10905;50.822;4.336;2023-07-24T03:52:38;17.80;99.90
21487;DHT22;10905;50.822;4.336;2023-07-24T03:55:04;17.80;99.90
21487;DHT22;10905;50.822;4.336;2023-07-24T03:57:30;17.80;99.90
21487;DHT22;10905;50.822;4.336;2023-07-24T03:59:56;17.80;99.90
21487;DHT22;10905;50.822;4.336;2023-07-24T04:02:21;17.80;99.90
21487;DHT22;10905;50.822;4.336;2023-07-24T04:04:47;17.80;99.90
21487;DHT22;10905;50.822;4.336;2023-07-24T04:07:13;17.80;99.90
21487;DHT22;10905;50.822;4.336;2023-07-24T04:09:39;17.80;99.90
21487;DHT22;10905;50.822;4.336;2023-07-24T04:12:04;17.80;99.90
21487;DHT22;10905;50.822;4.336;2023-07-24T04:14:30;17.90;99.90
21487;DHT22;10905;50.822;4.336;2023-07-24T04:16:56;17.90;99.90
21487;DHT22;10905;50.822;4.336;2023-07-24T04:19:22;17.90;99.90
21487;DHT22;10905;50.822;4.336;2023-07-24T04:21:47;17.90;99.90
21487;DHT22;10905;50.822;4.336;2023-07-24T04:24:13;17.80;99.90
21487;DHT22;10905;50.822;4.336;2023-07-24T04:26:39;17.80;99.90
21487;DHT22;10905;50.822;4.336;2023-07-24T04:29:05;17.80;99.90
21487;DHT22;10905;50.822;4.336;2023-07-24T04:31:31;17.80;99.90
21487;DHT22;10905;50.822;4.336;2023-07-24T04:33:57;17.70;99.90
21487;DHT22;10905;50.822;4.336;2023-07-24T04:36:22;17.70;99.90
21487;DHT22;10905;50.822;4.336;2023-07-24T04:38:48;17.70;99.90
21487;DHT22;10905;50.822;4.336;2023-07-24T04:41:13;17.70;99.90
21487;DHT22;10905;50.822;4.336;2023-07-24T04:43:39;17.70;99.90
21487;DHT22;10905;50.822;4.336;2023-07-24T04:46:05;17.80;99.90
21487;DHT22;10905;50.822;4.336;2023-07-24T04:48:30;17.90;99.90
21487;DHT22;10905;50.822;4.336;2023-07-24T04:50:56;17.90;99.90
21487;DHT22;10905;50.822;4.336;2023-07-24T04:53:22;17.90;99.90
21487;DHT22;10905;50.822;4.336;2023-07-24T04:55:48;17.80;99.90
21487;DHT22;10905;50.822;4.336;2023-07-24T04:58:13;17.80;99.90
21487;DHT22;10905;50.822;4.336;2023-07-24T05:00:39;17.80;99.90
21487;DHT22;10905;50.822;4.336;2023-07-24T05:03:05;17.90;99.90
21487;DHT22;10905;50.822;4.336;2023-07-24T05:05:32;17.90;99.90
21487;DHT22;10905;50.822;4.336;2023-07-24T05:07:57;18.00;99.90
21487;DHT22;10905;50.822;4.336;2023-07-24T05:10:23;18.00;99.90
21487;DHT22;10905;50.822;4.336;2023-07-24T05:12:48;18.00;99.90
21487;DHT22;10905;50.822;4.336;2023-07-24T05:15:14;17.90;99.90
21487;DHT22;10905;50.822;4.336;2023-07-24T05:17:45;17.90;99.90
21487;DHT22;10905;50.822;4.336;2023-07-24T05:20:11;18.00;99.90
21487;DHT22;10905;50.822;4.336;2023-07-24T05:22:37;17.90;99.90
21487;DHT22;10905;50.822;4.336;2023-07-24T05:25:02;17.90;99.90
21487;DHT22;10905;50.822;4.336;2023-07-24T05:27:28;18.00;99.90
21487;DHT22;10905;50.822;4.336;2023-07-24T05:29:55;18.00;99.90
21487;DHT22;10905;50.822;4.336;2023-07-24T05:32:20;18.00;99.90
21487;DHT22;10905;50.822;4.336;2023-07-24T05:34:46;18.10;99.90
21487;DHT22;10905;50.822;4.336;2023-07-24T05:37:12;18.20;99.90
21487;DHT22;10905;50.822;4.336;2023-07-24T05:39:37;18.30;99.90
21487;DHT22;10905;50.822;4.336;2023-07-24T05:42:03;18.30;99.90
21487;DHT22;10905;50.822;4.336;2023-07-24T05:44:29;18.40;99.90
21487;DHT22;10905;50.822;4.336;2023-07-24T05:46:54;18.30;99.90
21487;DHT22;10905;50.822;4.336;2023-07-24T05:49:20;18.30;99.90
21487;DHT22;10905;50.822;4.336;2023-07-24T05:51:45;18.30;99.90
21487;DHT22;10905;50.822;4.336;2023-07-24T05:54:11;18.30;99.90
21487;DHT22;10905;50.822;4.336;2023-07-24T05:56:36;18.40;99.90
21487;DHT22;10905;50.822;4.336;2023-07-24T05:59:02;18.50;99.90
21487;DHT22;10905;50.822;4.336;2023-07-24T06:01:27;18.50;99.90
21487;DHT22;10905;50.822;4.336;2023-07-24T06:03:53;18.50;99.90
21487;DHT22;10905;50.822;4.336;2023-07-24T06:06:19;18.60;99.90
21487;DHT22;10905;50.822;4.336;2023-07-24T06:08:44;18.60;99.90
21487;DHT22;10905;50.822;4.336;2023-07-24T06:11:10;18.50;99.90
21487;DHT22;10905;50.822;4.336;2023-07-24T06:13:36;18.50;99.90
21487;DHT22;10905;50.822;4.336;2023-07-24T06:16:01;18.40;99.90
21487;DHT22;10905;50.822;4.336;2023-07-24T06:18:27;18.50;99.90
21487;DHT22;10905;50.822;4.336;2023-07-24T06:20:53;18.60;99.90
21487;DHT22;10905;50.822;4.336;2023-07-24T06:23:19;18.70;99.90
21487;DHT22;10905;50.822;4.336;2023-07-24T06:25:45;18.90;99.90
21487;DHT22;10905;50.822;4.336;2023-07-24T06:28:10;19.10;99.90
21487;DHT22;10905;50.822;4.336;2023-07-24T06:30:37;19.20;99.90
21487;DHT22;10905;50.822;4.336;2023-07-24T06:33:03;19.20;99.90
21487;DHT22;10905;50.822;4.336;2023-07-24T06:35:29;19.20;99.90
21487;DHT22;10905;50.822;4.336;2023-07-24T06:37:55;19.20;99.90
21487;DHT22;10905;50.822;4.336;2023-07-24T06:40:20;19.30;99.90
21487;DHT22;10905;50.822;4.336;2023-07-24T06:42:46;19.30;99.90
21487;DHT22;10905;50.822;4.336;2023-07-24T06:45:11;19.40;99.90
21487;DHT22;10905;50.822;4.336;2023-07-24T06:47:37;19.50;99.90
21487;DHT22;10905;50.822;4.336;2023-07-24T06:50:03;19.60;99.90
21487;DHT22;10905;50.822;4.336;2023-07-24T06:52:30;19.60;99.90
21487;DHT22;10905;50.822;4.336;2023-07-24T06:54:56;19.60;99.90
21487;DHT22;10905;50.822;4.336;2023-07-24T06:57:23;19.60;99.90
21487;DHT22;10905;50.822;4.336;2023-07-24T06:59:49;19.60;99.90
21487;DHT22;10905;50.822;4.336;2023-07-24T07:02:15;19.50;99.90
21487;DHT22;10905;50.822;4.336;2023-07-24T07:04:40;19.30;99.90
21487;DHT22;10905;50.822;4.336;2023-07-24T07:07:06;19.20;99.90
21487;DHT22;10905;50.822;4.336;2023-07-24T07:09:31;19.20;99.90
21487;DHT22;10905;50.822;4.336;2023-07-24T07:11:57;19.20;99.90
21487;DHT22;10905;50.822;4.336;2023-07-24T07:14:22;19.20;99.90
21487;DHT22;10905;50.822;4.336;2023-07-24T07:16:48;19.40;99.90
21487;DHT22;10905;50.822;4.336;2023-07-24T07:19:14;19.50;99.90
21487;DHT22;10905;50.822;4.336;2023-07-24T07:21:39;19.50;99.90
21487;DHT22;10905;50.822;4.336;2023-07-24T07:24:05;19.40;99.90
21487;DHT22;10905;50.822;4.336;2023-07-24T07:26:31;19.50;99.90
21487;DHT22;10905;50.822;4.336;2023-07-24T07:28:56;19.50;99.90
21487;DHT22;10905;50.822;4.336;2023-07-24T07:31:22;19.50;99.90
21487;DHT22;10905;50.822;4.336;2023-07-24T07:33:47;19.50;99.90
21487;DHT22;10905;50.822;4.336;2023-07-24T07:36:13;19.60;99.90
21487;DHT22;10905;50.822;4.336;2023-07-24T07:38:39;19.70;99.90
21487;DHT22;10905;50.822;4.336;2023-07-24T07:41:05;19.70;99.90
21487;DHT22;10905;50.822;4.336;2023-07-24T07:43:31;19.70;99.90
21487;DHT22;10905;50.822;4.336;2023-07-24T07:45:57;19.60;99.90
21487;DHT22;10905;50.822;4.336;2023-07-24T07:48:24;19.70;99.90
21487;DHT22;10905;50.822;4.336;2023-07-24T07:50:51;19.70;99.90
21487;DHT22;10905;50.822;4.336;2023-07-24T07:53:17;19.70;99.90
21487;DHT22;10905;50.822;4.336;2023-07-24T07:55:42;19.90;99.90
21487;DHT22;10905;50.822;4.336;2023-07-24T07:58:08;20.00;99.90
21487;DHT22;10905;50.822;4.336;2023-07-24T08:00:34;20.10;99.90
21487;DHT22;10905;50.822;4.336;2023-07-24T08:03:00;20.20;99.90
21487;DHT22;10905;50.822;4.336;2023-07-24T08:05:26;20.40;99.90
21487;DHT22;10905;50.822;4.336;2023-07-24T08:07:51;20.50;99.90
21487;DHT22;10905;50.822;4.336;2023-07-24T08:10:17;20.50;99.90
21487;DHT22;10905;50.822;4.336;2023-07-24T08:12:43;20.30;99.90
21487;DHT22;10905;50.822;4.336;2023-07-24T08:15:09;20.00;99.90
21487;DHT22;10905;50.822;4.336;2023-07-24T08:17:35;19.90;99.90
21487;DHT22;10905;50.822;4.336;2023-07-24T08:20:00;19.80;99.90
21487;DHT22;10905;50.822;4.336;2023-07-24T08:22:26;19.70;99.90
21487;DHT22;10905;50.822;4.336;2023-07-24T08:24:52;19.70;99.90
21487;DHT22;10905;50.822;4.336;2023-07-24T08:27:17;19.70;99.90
21487;DHT22;10905;50.822;4.336;2023-07-24T08:29:43;19.70;99.90
21487;DHT22;10905;50.822;4.336;2023-07-24T08:32:08;19.50;99.90
21487;DHT22;10905;50.822;4.336;2023-07-24T08:34:34;19.40;99.90
21487;DHT22;10905;50.822;4.336;2023-07-24T08:37:00;19.40;99.90
21487;DHT22;10905;50.822;4.336;2023-07-24T08:39:25;19.40;99.90
21487;DHT22;10905;50.822;4.336;2023-07-24T08:41:52;19.40;99.90
21487;DHT22;10905;50.822;4.336;2023-07-24T08:44:18;19.40;99.90
21487;DHT22;10905;50.822;4.336;2023-07-24T08:46:44;19.50;99.90
21487;DHT22;10905;50.822;4.336;2023-07-24T08:49:14;19.60;99.90
21487;DHT22;10905;50.822;4.336;2023-07-24T08:51:41;19.50;99.90
21487;DHT22;10905;50.822;4.336;2023-07-24T08:54:07;19.40;99.90
21487;DHT22;10905;50.822;4.336;2023-07-24T08:56:33;19.30;99.90
21487;DHT22;10905;50.822;4.336;2023-07-24T08:58:59;19.10;99.90
21487;DHT22;10905;50.822;4.336;2023-07-24T09:01:25;19.10;99.90
21487;DHT22;10905;50.822;4.336;2023-07-24T09:03:50;19.00;99.90
21487;DHT22;10905;50.822;4.336;2023-07-24T09:06:16;19.10;99.90
21487;DHT22;10905;50.822;4.336;2023-07-24T09:08:43;19.00;99.90
21487;DHT22;10905;50.822;4.336;2023-07-24T09:11:10;18.90;99.90
21487;DHT22;10905;50.822;4.336;2023-07-24T09:13:38;18.90;99.90
21487;DHT22;10905;50.822;4.336;2023-07-24T09:16:04;18.90;99.90
21487;DHT22;10905;50.822;4.336;2023-07-24T09:18:40;18.90;99.90
21487;DHT22;10905;50.822;4.336;2023-07-24T09:21:06;19.00;99.90
21487;DHT22;10905;50.822;4.336;2023-07-24T09:23:32;19.00;99.90
21487;DHT22;10905;50.822;4.336;2023-07-24T09:25:57;19.00;99.90
21487;DHT22;10905;50.822;4.336;2023-07-24T09:28:23;18.90;99.90
21487;DHT22;10905;50.822;4.336;2023-07-24T09:30:57;18.90;99.90
21487;DHT22;10905;50.822;4.336;2023-07-24T09:33:33;19.10;99.90
21487;DHT22;10905;50.822;4.336;2023-07-24T09:36:00;19.10;99.90
21487;DHT22;10905;50.822;4.336;2023-07-24T09:38:25;18.90;99.90
21487;DHT22;10905;50.822;4.336;2023-07-24T09:40:52;18.80;99.90
21487;DHT22;10905;50.822;4.336;2023-07-24T09:43:22;18.80;99.90
21487;DHT22;10905;50.822;4.336;2023-07-24T09:45:49;18.80;99.90
21487;DHT22;10905;50.822;4.336;2023-07-24T09:48:17;18.80;99.90
21487;DHT22;10905;50.822;4.336;2023-07-24T09:50:45;18.70;99.90
21487;DHT22;10905;50.822;4.336;2023-07-24T09:56:04;18.60;99.90
21487;DHT22;10905;50.822;4.336;2023-07-24T09:58:32;18.60;99.90
21487;DHT22;10905;50.822;4.336;2023-07-24T10:01:01;18.60;99.90
21487;DHT22;10905;50.822;4.336;2023-07-24T10:03:28;18.60;99.90
21487;DHT22;10905;50.822;4.336;2023-07-24T10:05:54;18.70;99.90
21487;DHT22;10905;50.822;4.336;2023-07-24T10:08:20;18.60;99.90
21487;DHT22;10905;50.822;4.336;2023-07-24T10:10:46;18.50;99.90
21487;DHT22;10905;50.822;4.336;2023-07-24T10:13:13;18.60;99.90
21487;DHT22;10905;50.822;4.336;2023-07-24T10:15:43;18.70;99.90
21487;DHT22;10905;50.822;4.336;2023-07-24T10:18:10;18.60;99.90
21487;DHT22;10905;50.822;4.336;2023-07-24T10:20:40;18.70;99.90
21487;DHT22;10905;50.822;4.336;2023-07-24T10:23:09;18.90;99.90
21487;DHT22;10905;50.822;4.336;2023-07-24T10:25:39;19.00;99.90
21487;DHT22;10905;50.822;4.336;2023-07-24T10:28:10;19.20;99.90
21487;DHT22;10905;50.822;4.336;2023-07-24T10:30:38;19.40;99.90
21487;DHT22;10905;50.822;4.336;2023-07-24T10:36:06;19.90;99.90
21487;DHT22;10905;50.822;4.336;2023-07-24T10:38:37;19.90;99.90
21487;DHT22;10905;50.822;4.336;2023-07-24T10:41:04;20.10;99.90
21487;DHT22;10905;50.822;4.336;2023-07-24T10:43:46;20.20;99.90
21487;DHT22;10905;50.822;4.336;2023-07-24T10:46:13;20.40;99.90
21487;DHT22;10905;50.822;4.336;2023-07-24T10:48:46;20.50;99.90
21487;DHT22;10905;50.822;4.336;2023-07-24T10:51:15;20.60;99.90
21487;DHT22;10905;50.822;4.336;2023-07-24T10:53:58;20.70;99.90
21487;DHT22;10905;50.822;4.336;2023-07-24T10:56:24;20.80;99.90
21487;DHT22;10905;50.822;4.336;2023-07-24T10:58:49;20.80;99.90
21487;DHT22;10905;50.822;4.336;2023-07-24T11:01:17;20.80;99.90
21487;DHT22;10905;50.822;4.336;2023-07-24T11:03:44;20.80;99.90
21487;DHT22;10905;50.822;4.336;2023-07-24T11:06:18;20.80;99.90
21487;DHT22;10905;50.822;4.336;2023-07-24T11:08:58;20.90;99.90
21487;DHT22;10905;50.822;4.336;2023-07-24T11:11:31;21.00;99.90
21487;DHT22;10905;50.822;4.336;2023-07-24T11:13:57;21.10;99.90
21487;DHT22;10905;50.822;4.336;2023-07-24T11:16:23;21.10;99.90
21487;DHT22;10905;50.822;4.336;2023-07-24T11:18:50;21.00;99.90
21487;DHT22;10905;50.822;4.336;2023-07-24T11:21:17;20.80;99.90
21487;DHT22;10905;50.822;4.336;2023-07-24T11:23:51;20.70;99.90
21487;DHT22;10905;50.822;4.336;2023-07-24T11:26:21;20.60;99.90
21487;DHT22;10905;50.822;4.336;2023-07-24T11:28:47;20.70;99.90
21487;DHT22;10905;50.822;4.336;2023-07-24T11:31:12;20.60;99.90
21487;DHT22;10905;50.822;4.336;2023-07-24T11:33:40;20.80;99.90
21487;DHT22;10905;50.822;4.336;2023-07-24T11:36:07;20.90;99.90
21487;DHT22;10905;50.822;4.336;2023-07-24T11:38:33;20.90;99.90
21487;DHT22;10905;50.822;4.336;2023-07-24T11:40:59;21.10;99.90
21487;DHT22;10905;50.822;4.336;2023-07-24T11:43:25;21.30;99.90
21487;DHT22;10905;50.822;4.336;2023-07-24T11:45:52;21.50;99.90
21487;DHT22;10905;50.822;4.336;2023-07-24T11:48:22;21.60;99.90
21487;DHT22;10905;50.822;4.336;2023-07-24T11:50:50;21.50;99.90
21487;DHT22;10905;50.822;4.336;2023-07-24T11:53:29;21.70;99.90
21487;DHT22;10905;50.822;4.336;2023-07-24T11:55:57;21.70;99.90
21487;DHT22;10905;50.822;4.336;2023-07-24T11:58:28;21.70;99.90
21487;DHT22;10905;50.822;4.336;2023-07-24T12:00:55;21.60;99.90
21487;DHT22;10905;50.822;4.336;2023-07-24T12:05:47;21.70;99.90
21487;DHT22;10905;50.822;4.336;2023-07-24T12:08:13;21.80;99.90
21487;DHT22;10905;50.822;4.336;2023-07-24T12:10:40;22.00;99.90
21487;DHT22;10905;50.822;4.336;2023-07-24T12:13:06;22.10;99.90
21487;DHT22;10905;50.822;4.336;2023-07-24T12:15:32;22.30;99.90
21487;DHT22;10905;50.822;4.336;2023-07-24T12:18:04;22.30;99.90
21487;DHT22;10905;50.822;4.336;2023-07-24T12:20:30;22.20;99.90
21487;DHT22;10905;50.822;4.336;2023-07-24T12:22:57;22.10;99.90
21487;DHT22;10905;50.822;4.336;2023-07-24T12:25:23;22.20;99.90
21487;DHT22;10905;50.822;4.336;2023-07-24T12:27:49;22.10;99.90
21487;DHT22;10905;50.822;4.336;2023-07-24T12:30:15;22.10;99.90
21487;DHT22;10905;50.822;4.336;2023-07-24T12:32:40;22.00;99.90
21487;DHT22;10905;50.822;4.336;2023-07-24T12:35:08;22.00;99.90
21487;DHT22;10905;50.822;4.336;2023-07-24T12:37:33;21.90;99.90
21487;DHT22;10905;50.822;4.336;2023-07-24T12:39:59;21.90;99.90
21487;DHT22;10905;50.822;4.336;2023-07-24T12:42:25;21.80;99.90
21487;DHT22;10905;50.822;4.336;2023-07-24T12:44:51;21.80;99.90
21487;DHT22;10905;50.822;4.336;2023-07-24T12:47:16;21.80;99.90
21487;DHT22;10905;50.822;4.336;2023-07-24T12:49:42;22.00;99.90
21487;DHT22;10905;50.822;4.336;2023-07-24T12:52:08;22.10;99.90
21487;DHT22;10905;50.822;4.336;2023-07-24T12:54:34;22.10;99.90
21487;DHT22;10905;50.822;4.336;2023-07-24T12:57:01;22.30;99.90
21487;DHT22;10905;50.822;4.336;2023-07-24T12:59:27;22.10;99.90
21487;DHT22;10905;50.822;4.336;2023-07-24T13:01:53;22.10;99.90
21487;DHT22;10905;50.822;4.336;2023-07-24T13:04:19;22.00;99.90
21487;DHT22;10905;50.822;4.336;2023-07-24T13:06:45;21.90;99.90
21487;DHT22;10905;50.822;4.336;2023-07-24T13:09:11;21.80;99.90
21487;DHT22;10905;50.822;4.336;2023-07-24T13:11:36;21.60;99.90
21487;DHT22;10905;50.822;4.336;2023-07-24T13:14:02;21.50;99.90
21487;DHT22;10905;50.822;4.336;2023-07-24T13:16:28;21.50;99.90
21487;DHT22;10905;50.822;4.336;2023-07-24T13:18:54;21.60;99.90
21487;DHT22;10905;50.822;4.336;2023-07-24T13:21:19;21.50;99.90
21487;DHT22;10905;50.822;4.336;2023-07-24T13:23:45;21.50;99.90
21487;DHT22;10905;50.822;4.336;2023-07-24T13:26:12;21.40;99.90
21487;DHT22;10905;50.822;4.336;2023-07-24T13:28:38;21.50;99.90
21487;DHT22;10905;50.822;4.336;2023-07-24T13:31:18;21.60;99.90
21487;DHT22;10905;50.822;4.336;2023-07-24T13:33:44;21.80;99.90
21487;DHT22;10905;50.822;4.336;2023-07-24T13:36:10;22.00;99.90
21487;DHT22;10905;50.822;4.336;2023-07-24T13:38:36;22.20;99.90
21487;DHT22;10905;50.822;4.336;2023-07-24T13:41:02;22.00;99.90
21487;DHT22;10905;50.822;4.336;2023-07-24T13:43:28;22.00;99.90
21487;DHT22;10905;50.822;4.336;2023-07-24T13:45:54;22.10;99.90
21487;DHT22;10905;50.822;4.336;2023-07-24T13:48:20;22.20;99.90
21487;DHT22;10905;50.822;4.336;2023-07-24T13:50:46;22.20;99.90
21487;DHT22;10905;50.822;4.336;2023-07-24T13:53:11;22.50;99.90
21487;DHT22;10905;50.822;4.336;2023-07-24T13:55:37;22.70;99.90
21487;DHT22;10905;50.822;4.336;2023-07-24T13:58:03;22.80;99.90
21487;DHT22;10905;50.822;4.336;2023-07-24T14:00:28;22.80;99.90
21487;DHT22;10905;50.822;4.336;2023-07-24T14:02:54;22.80;99.90
21487;DHT22;10905;50.822;4.336;2023-07-24T14:05:20;22.30;99.90
21487;DHT22;10905;50.822;4.336;2023-07-24T14:07:45;22.30;99.90
21487;DHT22;10905;50.822;4.336;2023-07-24T14:10:11;22.40;99.90
21487;DHT22;10905;50.822;4.336;2023-07-24T14:12:37;22.70;99.90
21487;DHT22;10905;50.822;4.336;2023-07-24T14:15:03;22.80;99.90
21487;DHT22;10905;50.822;4.336;2023-07-24T14:17:29;22.90;99.90
21487;DHT22;10905;50.822;4.336;2023-07-24T14:19:55;22.80;99.90
21487;DHT22;10905;50.822;4.336;2023-07-24T14:22:20;22.70;99.90
21487;DHT22;10905;50.822;4.336;2023-07-24T14:24:46;22.90;99.90
21487;DHT22;10905;50.822;4.336;2023-07-24T14:27:13;22.90;99.90
21487;DHT22;10905;50.822;4.336;2023-07-24T14:29:39;22.80;99.90
21487;DHT22;10905;50.822;4.336;2023-07-24T14:32:05;22.70;99.90
21487;DHT22;10905;50.822;4.336;2023-07-24T14:34:31;22.50;99.90
21487;DHT22;10905;50.822;4.336;2023-07-24T14:36:57;22.30;99.90
21487;DHT22;10905;50.822;4.336;2023-07-24T14:39:22;22.10;99.90
21487;DHT22;10905;50.822;4.336;2023-07-24T14:41:48;22.20;99.90
21487;DHT22;10905;50.822;4.336;2023-07-24T14:44:14;22.00;99.90
21487;DHT22;10905;50.822;4.336;2023-07-24T14:46:39;22.20;99.90
21487;DHT22;10905;50.822;4.336;2023-07-24T14:49:05;22.30;99.90
21487;DHT22;10905;50.822;4.336;2023-07-24T14:51:30;22.30;99.90
21487;DHT22;10905;50.822;4.336;2023-07-24T14:53:56;22.30;99.90
21487;DHT22;10905;50.822;4.336;2023-07-24T14:56:21;22.20;99.90
21487;DHT22;10905;50.822;4.336;2023-07-24T14:58:47;21.60;99.90
21487;DHT22;10905;50.822;4.336;2023-07-24T15:01:13;21.30;99.90
21487;DHT22;10905;50.822;4.336;2023-07-24T15:03:39;20.60;99.90
21487;DHT22;10905;50.822;4.336;2023-07-24T15:06:04;20.30;99.90
21487;DHT22;10905;50.822;4.336;2023-07-24T15:08:32;20.20;99.90
21487;DHT22;10905;50.822;4.336;2023-07-24T15:10:58;19.90;99.90
21487;DHT22;10905;50.822;4.336;2023-07-24T15:13:24;19.70;99.90
21487;DHT22;10905;50.822;4.336;2023-07-24T15:15:49;19.60;99.90
21487;DHT22;10905;50.822;4.336;2023-07-24T15:18:15;19.20;99.90
21487;DHT22;10905;50.822;4.336;2023-07-24T15:20:41;18.90;99.90
21487;DHT22;10905;50.822;4.336;2023-07-24T15:23:07;18.60;99.90
21487;DHT22;10905;50.822;4.336;2023-07-24T15:25:32;18.30;99.90
21487;DHT22;10905;50.822;4.336;2023-07-24T15:27:58;18.20;99.90
21487;DHT22;10905;50.822;4.336;2023-07-24T15:30:24;18.10;99.90
21487;DHT22;10905;50.822;4.336;2023-07-24T15:32:50;18.10;99.90
21487;DHT22;10905;50.822;4.336;2023-07-24T15:35:15;18.20;99.90